Latest Weather Observations for Double Island Point

IDQ60801

Issued at 7:05 pm EST Thursday 23 October 2014 (issued every 30 minutes, with the page automatically refreshed every 10 minutes)

About weather observations | Map of weather stations | Latest weather observations for QLD | Other Formats
Station Details ID: 040068 Name: DOUBLE ISLAND POINT LIGHTHOUSE Lat: -25.93 Lon: 153.19 Height: 95.64 m
Data from the previous 72 hours. | See also: Recent months at Double Island Point
Date/Time
EST
Temp
°C
App
Temp
°C
Dew
Point
Rel
Hum
%
Delta-T
°C
Wind Press
QNH
hPa
Press
MSL
hPa
Rain
since 9 am
mm
Dir
 
Spd
km/h
Gust
km/h
Spd
kts
Gust
kts
23/07:00pm 19.8 16.9 12.8 64 4.0 NE 20 28 11 15 1019.9 1019.6 0.0
23/06:30pm 19.8 16.7 12.3 62 4.2 NE 20 26 11 14 1019.8 1019.5 0.0
23/06:00pm 19.9 16.7 11.9 60 4.5 ENE 20 28 11 15 1019.4 1019.0 0.0
23/05:30pm 20.3 16.9 11.2 56 5.0 ENE 20 24 11 13 1019.2 1018.8 0.0
23/05:00pm 20.7 16.9 11.3 55 5.2 ENE 22 28 12 15 1018.9 1018.5 0.0
23/04:30pm 21.3 18.1 11.9 55 5.3 ENE 20 28 11 15 1018.8 1018.4 0.0
23/04:00pm 21.5 17.4 11.5 53 5.6 ENE 24 28 13 15 1018.6 1018.2 0.0
23/03:30pm 21.6 17.6 11.9 54 5.5 ENE 24 30 13 16 1018.5 1018.1 0.0
23/03:00pm 22.7 18.9 12.3 52 5.9 E 24 28 13 15 1018.6 1018.2 0.0
23/02:30pm 22.8 18.7 11.5 49 6.4 E 24 30 13 16 1018.7 1018.3 0.0
23/02:00pm 23.4 20.3 12.1 49 6.4 E 20 24 11 13 1019.0 1018.6 0.0
23/01:30pm 22.9 19.6 11.6 49 6.4 ESE 20 24 11 13 1019.5 1019.2 0.0
23/01:00pm 23.3 20.4 12.3 50 6.3 ESE 19 22 10 12 1019.8 1019.5 0.0
23/12:30pm 22.7 19.5 11.1 48 6.5 SE 19 24 10 13 1020.3 1020.0 0.0
23/12:00pm 23.2 19.8 11.3 47 6.7 SSE 20 24 11 13 1020.8 1020.5 0.0
23/11:30am 23.2 20.5 11.6 48 6.5 SE 17 22 9 12 1021.3 1021.0 0.0
23/11:00am 23.2 20.8 11.3 47 6.7 SE 15 19 8 10 1021.7 1021.4 0.0
23/10:30am 23.8 20.8 10.5 43 7.4 ESE 17 19 9 10 1022.1 1021.8 0.0
23/10:00am 24.2 21.6 11.9 46 7.0 ESE 17 20 9 11 1022.1 1021.8 0.0
23/09:30am 22.9 19.8 10.3 45 6.9 ESE 17 22 9 12 1022.2 1021.9 0.0
23/09:00am 22.2 19.1 10.4 47 6.5 ESE 17 20 9 11 1022.2 1021.9 0.0
23/08:30am 22.8 20.0 11.2 48 6.5 ESE 17 20 9 11 1022.4 1022.1 0.0
23/08:00am 21.9 18.7 10.1 47 6.4 ESE 17 22 9 12 1022.4 1022.1 0.0
23/07:30am 21.9 19.0 11.0 50 6.0 ESE 17 22 9 12 1022.2 1021.9 0.0
23/07:00am 21.3 17.9 11.1 52 5.6 ESE 20 26 11 14 1021.9 1021.6 0.0
23/06:30am 20.5 17.3 12.0 58 4.8 E 20 24 11 13 1021.7 1021.4 0.0
23/06:00am 19.3 16.3 12.1 63 4.0 SE 19 22 10 12 1021.7 1021.4 0.0
23/05:30am 19.1 16.5 11.9 63 4.0 SE 17 20 9 11 1021.6 1021.3 0.0
23/05:00am 18.3 15.1 11.1 63 3.9 SE 19 24 10 13 1021.5 1021.2 0.0
23/04:30am 18.4 15.0 10.7 61 4.2 SE 19 24 10 13 1021.3 1021.0 0.0
23/04:00am 18.3 15.2 10.4 60 4.2 ESE 17 22 9 12 1021.2 1020.9 0.0
23/03:30am 18.2 15.0 10.1 59 4.3 ESE 17 22 9 12 1021.0 1020.7 0.0
23/03:00am 18.4 14.0 10.5 60 4.2 ESE 24 28 13 15 1020.8 1020.5 0.0
23/02:30am 18.5 13.9 11.1 62 4.0 ESE 26 32 14 17 1020.8 1020.5 0.0
23/02:00am 18.5 13.8 10.6 60 4.3 ESE 26 33 14 18 1020.8 1020.5 0.0
23/01:30am 18.7 13.7 11.0 61 4.2 ESE 28 33 15 18 1021.2 1020.9 0.0
23/01:00am 18.8 14.0 11.6 63 4.0 ESE 28 33 15 18 1021.5 1021.2 0.0
23/12:30am 18.9 13.5 11.0 60 4.3 ESE 30 37 16 20 1021.9 1021.6 0.0
23/12:00am 18.8 13.9 11.4 62 4.1 ESE 28 33 15 18 1022.2 1021.9 0.0
 
Date/Time
EST
Temp
°C
App
Temp
°C
Dew
Point
Rel
Hum
%
Delta-T
°C
Wind Press
QNH
hPa
Press
MSL
hPa
Rain
since 9 am
mm
Dir
 
Spd
km/h
Gust
km/h
Spd
kts
Gust
kts
22/11:30pm 18.9 14.1 11.5 62 4.1 ESE 28 37 15 20 1022.4 1022.1 0.0
22/11:00pm 18.9 14.1 11.7 63 4.0 ESE 28 35 15 19 1022.6 1022.3 0.0
22/10:30pm 19.0 13.3 11.3 61 4.2 ESE 32 37 17 20 1022.7 1022.4 0.0
22/10:00pm 19.2 12.9 11.0 59 4.5 ESE 35 41 19 22 1022.8 1022.5 0.0
22/09:30pm 19.2 13.1 11.7 62 4.2 ESE 35 43 19 23 1022.8 1022.5 0.0
22/09:00pm 19.4 13.3 11.7 61 4.3 ESE 35 43 19 23 1022.9 1022.6 0.0
22/08:30pm 19.4 13.1 12.2 63 4.0 ESE 37 44 20 24 1022.9 1022.6 0.0
22/08:00pm 19.3 12.5 11.8 62 4.1 ESE 39 46 21 25 1022.8 1022.5 0.0
22/07:30pm 19.3 13.1 12.6 65 3.8 SE 37 46 20 25 1022.7 1022.4 0.0
22/07:00pm 19.2 13.0 12.5 65 3.7 ESE 37 48 20 26 1022.6 1022.3 0.0
22/06:30pm 19.4 12.9 12.9 66 3.7 ESE 39 48 21 26 1022.2 1021.9 0.0
22/06:00pm 19.5 12.1 11.3 59 4.5 SE 41 50 22 27 1021.9 1021.6 0.0
22/05:30pm 19.7 12.2 10.7 56 4.9 SE 41 48 22 26 1021.8 1021.5 0.0
22/05:00pm 19.9 11.8 10.9 56 4.9 SE 44 54 24 29 1021.6 1021.3 0.0
22/04:30pm 20.2 11.6 10.3 53 5.4 SE 46 52 25 28 1021.5 1021.2 0.0
22/04:00pm 20.6 12.7 10.7 53 5.4 SE 43 50 23 27 1021.5 1021.2 0.0
22/03:30pm 20.9 12.9 11.0 53 5.5 SE 44 52 24 28 1021.3 1021.0 0.0
22/03:00pm 21.2 14.4 12.1 56 5.1 SE 39 46 21 25 1021.4 1021.1 0.0
22/02:30pm 21.2 14.4 12.1 56 5.1 SE 39 44 21 24 1021.8 1021.5 0.0
22/02:00pm 21.5 14.4 10.9 51 5.8 SE 39 46 21 25 1022.1 1021.8 0.0
22/01:30pm 21.8 14.9 11.5 52 5.8 SE 39 46 21 25 1022.5 1022.2 0.0
22/01:00pm 22.2 15.8 11.9 52 5.8 SE 37 44 20 24 1022.6 1022.3 0.0
22/12:30pm 21.9 14.8 12.2 54 5.5 SE 41 46 22 25 1023.0 1022.7 0.0
22/12:00pm 21.8 14.1 11.5 52 5.7 SE 43 48 23 26 1023.2 1022.9 0.0
22/11:30am 22.0 14.0 10.5 48 6.3 SE 43 48 23 26 1023.6 1023.3 0.0
22/11:00am 21.6 13.7 11.6 53 5.6 SSE 44 54 24 29 1023.8 1023.5 0.0
22/10:30am 22.1 14.8 11.5 51 5.9 SE 41 46 22 25 1024.1 1023.8 0.0
22/10:00am 21.6 14.2 11.3 52 5.7 SE 41 46 22 25 1024.5 1024.1 0.0
22/09:30am 21.5 13.5 10.6 50 6.0 SE 43 48 23 26 1024.1 1023.8 0.0
22/09:00am 21.6 14.1 10.7 50 6.0 SSE 41 50 22 27 1024.4 1024.0 0.2
22/08:30am 21.4 12.6 10.9 51 5.8 SE 48 56 26 30 1024.2 1023.9 0.2
22/08:00am 21.0 13.0 11.1 53 5.4 SE 44 52 24 28 1024.0 1023.7 0.2
22/07:30am 20.3 11.4 10.7 54 5.2 SE 48 57 26 31 1024.0 1023.7 0.2
22/07:00am 20.1 10.8 11.8 59 4.6 SE 52 63 28 34 1023.6 1023.3 0.2
22/06:30am 19.5 10.5 11.5 60 4.4 SE 50 59 27 32 1023.4 1023.1 0.2
22/06:00am 19.5 11.4 12.0 62 4.2 SE 46 56 25 30 1023.0 1022.7 0.2
22/05:30am 19.3 10.5 12.3 64 3.9 ESE 50 59 27 32 1022.7 1022.4 0.2
22/05:00am 19.2 10.4 11.0 59 4.5 SE 48 56 26 30 1022.7 1022.4 0.2
22/04:30am 19.3 11.3 12.3 64 3.9 SE 46 56 25 30 1022.5 1022.2 0.2
22/04:00am 19.3 10.8 12.1 63 4.0 SE 48 56 26 30 1022.5 1022.2 0.2
22/03:30am 19.1 11.1 12.4 65 3.8 ESE 46 57 25 31 1022.5 1022.2 0.2
22/03:00am 19.2 12.0 13.6 70 3.2 SE 44 56 24 30 1022.7 1022.4 0.2
22/02:30am 19.3 11.0 12.6 65 3.8 SE 48 56 26 30 1022.8 1022.5 0.2
22/02:00am 19.3 11.2 13.2 68 3.5 ESE 48 57 26 31 1023.2 1022.9 0.2
22/01:30am 19.5 11.5 12.5 64 3.9 SE 46 56 25 30 1023.4 1023.1 0.2
22/01:00am 19.4 11.7 13.3 68 3.5 SE 46 52 25 28 1023.8 1023.5 0.2
22/12:30am 19.5 11.0 13.2 67 3.6 SE 50 56 27 30 1024.1 1023.8 0.2
22/12:00am 19.7 11.2 13.2 66 3.7 SE 50 57 27 31 1024.5 1024.1 0.2
 
Date/Time
EST
Temp
°C
App
Temp
°C
Dew
Point
Rel
Hum
%
Delta-T
°C
Wind Press
QNH
hPa
Press
MSL
hPa
Rain
since 9 am
mm
Dir
 
Spd
km/h
Gust
km/h
Spd
kts
Gust
kts
21/11:30pm 20.1 12.4 14.5 70 3.3 SE 48 56 26 30 1025.0 1024.6 0.2
21/11:00pm 19.9 13.2 14.5 71 3.1 ESE 43 50 23 27 1025.3 1024.9 0.2
21/10:30pm 19.9 12.4 14.9 73 2.9 ESE 48 57 26 31 1025.5 1025.1 0.2
21/10:00pm 20.1 12.2 14.9 72 3.0 ESE 50 63 27 34 1025.5 1025.1 0.2
21/09:30pm 20.1 12.5 14.7 71 3.2 ESE 48 56 26 30 1025.7 1025.3 0.2
21/09:00pm 20.0 12.0 14.6 71 3.1 ESE 50 61 27 33 1025.6 1025.2 0.2
21/08:30pm 20.1 11.8 14.9 72 3.1 ESE 52 61 28 33 1025.5 1025.1 0.2
21/08:00pm 20.0 11.4 15.2 74 2.8 ESE 54 63 29 34 1025.2 1024.8 0.2
21/07:30pm 19.4 10.2 14.9 75 2.6 SE 57 67 31 36 1024.9 1024.5 0.2
21/07:00pm 19.7 13.2 16.5 82 1.9 ESE 46 57 25 31 1024.9 1024.5 0.2
21/06:30pm 20.3 13.4 16.5 79 2.3 ESE 48 56 26 30 1024.7 1024.3 0.0
21/06:00pm 19.6 12.6 16.3 81 2.0 ESE 48 61 26 33 1024.5 1024.1 0.0
21/05:30pm 20.5 14.0 15.7 74 2.9 ESE 44 52 24 28 1023.9 1023.6 0.0
21/05:00pm 20.5 13.8 16.1 76 2.6 SE 46 54 25 29 1023.7 1023.4 0.0
21/04:30pm 20.3 14.3 16.5 79 2.3 ESE 43 52 23 28 1023.5 1023.2 0.0
21/04:29pm 20.3 14.4 16.7 80 2.2 ESE 43 52 23 28 1023.5 1023.2 0.0
21/04:03pm 19.4 13.7 17.2 87 1.3 SSE 43 70 23 38 1023.4 1023.1 0.0
21/04:00pm 19.5 14.3 17.5 88 1.2 SSE 41 50 22 27 1023.5 1023.2 0.0
21/03:30pm 20.1 14.8 17.3 84 1.7 SE 41 56 22 30 1023.3 1023.0 0.0
21/03:00pm 21.4 15.6 15.9 71 3.3 SE 41 46 22 25 1023.4 1023.1 0.0
21/02:30pm 21.7 17.1 16.0 70 3.4 SE 35 41 19 22 1023.6 1023.3 0.0
21/02:00pm 21.4 17.2 15.7 70 3.4 SE 32 37 17 20 1023.8 1023.5 0.0
21/01:30pm 21.0 16.4 16.2 74 2.9 SSE 35 41 19 22 1024.0 1023.7 0.0
21/01:00pm 21.7 17.0 14.8 65 4.1 SE 33 39 18 21 1024.5 1024.1 0.0
21/12:30pm 22.7 18.0 14.8 61 4.7 SE 33 39 18 21 1024.8 1024.4 0.0
21/12:00pm 23.0 18.2 14.6 59 5.0 SE 33 39 18 21 1025.0 1024.6 0.0
21/11:30am 23.1 17.9 14.4 58 5.1 SE 35 39 19 21 1025.3 1024.9 0.0
21/11:00am 23.3 18.6 14.3 57 5.3 SE 32 37 17 20 1025.8 1025.4 0.0
21/10:30am 23.0 18.0 13.5 55 5.5 SE 32 39 17 21 1026.1 1025.7 0.0
21/10:00am 23.0 17.7 13.2 54 5.6 SE 33 39 18 21 1026.2 1025.8 0.0
21/09:30am 22.8 17.7 13.0 54 5.7 SE 32 37 17 20 1026.2 1025.8 0.0
21/09:00am 22.5 17.5 13.3 56 5.3 ESE 32 35 17 19 1026.3 1025.9 0.0
21/08:30am 21.9 16.5 12.7 56 5.3 ESE 33 39 18 21 1026.2 1025.8 0.0
21/08:00am 22.2 16.8 12.2 53 5.6 ESE 32 39 17 21 1025.9 1025.5 0.0
21/07:30am 21.8 16.2 12.1 54 5.5 ESE 33 39 18 21 1025.6 1025.2 0.0
21/07:00am 21.4 16.2 12.8 58 4.9 ESE 32 39 17 21 1025.5 1025.1 0.0
21/06:30am 20.8 15.2 12.2 58 4.8 ESE 33 39 18 21 1025.0 1024.6 0.0
21/06:00am 20.3 14.4 12.3 60 4.5 ESE 35 44 19 24 1024.7 1024.3 0.0
21/05:30am 19.8 13.7 11.8 60 4.5 ESE 35 43 19 23 1024.5 1024.1 0.0
21/05:00am 19.4 13.9 12.4 64 3.9 ESE 33 39 18 21 1024.1 1023.8 0.0
21/04:30am 19.6 13.1 11.6 60 4.4 ESE 37 46 20 25 1023.9 1023.6 0.0
21/04:00am 19.7 13.0 12.2 62 4.2 ESE 39 46 21 25 1023.9 1023.6 0.0
21/03:30am 19.6 13.2 11.9 61 4.3 ESE 37 44 20 24 1023.8 1023.5 0.0
21/03:00am 19.6 12.8 11.9 61 4.3 ESE 39 44 21 24 1023.8 1023.5 0.0
21/02:30am 19.5 13.4 11.8 61 4.3 ESE 35 44 19 24 1024.0 1023.7 0.0
21/02:00am 19.6 13.3 12.4 63 4.0 ESE 37 43 20 23 1024.4 1024.0 0.0
21/01:30am 19.7 13.5 12.5 63 4.1 ESE 37 43 20 23 1024.7 1024.3 0.0
21/01:00am 19.6 13.4 12.6 64 3.9 ESE 37 44 20 24 1024.9 1024.5 0.0
21/12:30am 19.7 13.7 12.2 62 4.2 ESE 35 43 19 23 1025.4 1025.0 0.0
21/12:00am 19.8 12.7 12.1 61 4.3 ESE 41 46 22 25 1025.5 1025.1 0.0
 
Date/Time
EST
Temp
°C
App
Temp
°C
Dew
Point
Rel
Hum
%
Delta-T
°C
Wind Press
QNH
hPa
Press
MSL
hPa
Rain
since 9 am
mm
Dir
 
Spd
km/h
Gust
km/h
Spd
kts
Gust
kts
20/11:30pm 20.0 14.2 12.7 63 4.1 ESE 35 43 19 23 1025.7 1025.3 0.0
20/11:00pm 19.9 14.2 12.9 64 4.0 ESE 35 41 19 22 1025.8 1025.4 0.0
20/10:30pm 20.1 14.6 12.3 61 4.4 ESE 33 41 18 22 1025.8 1025.4 0.0
20/10:00pm 20.2 15.3 13.6 66 3.8 ESE 32 37 17 20 1025.8 1025.4 0.0
20/09:30pm 20.1 15.1 13.3 65 3.9 ESE 32 39 17 21 1025.6 1025.2 0.0
20/09:00pm 20.1 15.0 13.1 64 4.0 ESE 32 39 17 21 1025.3 1024.9 0.0
20/08:30pm 20.0 15.2 13.0 64 4.0 ESE 30 35 16 19 1025.1 1024.7 0.0
20/08:00pm 19.9 15.7 13.4 66 3.7 ESE 28 35 15 19 1024.6 1024.2 0.0
20/07:30pm 19.9 15.9 13.1 65 3.9 E 26 32 14 17 1024.0 1023.7 0.0

Other Formats:

Comma delimited format used in spreadsheet applications
http://www.bom.gov.au/fwo/IDQ60801/IDQ60801.94584.axf

JavaScript Object Notation format (JSON) in row-major order
http://www.bom.gov.au/fwo/IDQ60801/IDQ60801.94584.json